Bennington, Vermont
Current Conditions -  °F | °C
As of 11:54 PM on Tuesday 25 Nov 2014 (Local Time) from KDDH Reporting Station
Clear Clear  
Wind Chill:   Ceiling: Unl
Heat Index:   Visibility: 10mi
Dew Point: -3°   Wind: 7mph
Humidity: 60%   Direction: 240°WSW
Pressure: 30.14"   Gusts: NA
Location:  42.88°N, 73.2°W
Report Text: KDDH 260454Z AUTO 24006KT 10SM CLR 04/M03 A3014 RMK AO2 SLP210 T00391033 401721006
Loading
Personal Weather Stations






























Interactive Weather Map New forecast layout! Learn more

10-Day Weather Forecast

Advertisements
Track Severe Weather on mobile